Time;durP1;ratioP1;P1;durP2;ratioP2;P2;SDS_P1;SDS_P2;PMS_P1;PMS_P2;Temp;Humidity;BMP_temperature;BMP_pressure;BME280_temperature;BME280_humidity;BME280_pressure;Samples;Min_cycle;Max_cycle;Signal;HPM_P1;HPM_P2
2021/06/13 00:00:30;;;;;;;7.40;6.23;;;16.90;99.90;;;;;;2097360;28;20187;-73
2021/06/13 00:01:31;;;;;;;6.47;5.83;;;16.90;99.90;;;;;;2097474;28;20527;-73
2021/06/13 00:02:32;;;;;;;6.47;5.87;;;16.90;99.90;;;;;;2088313;28;20208;-73
2021/06/13 00:03:32;;;;;;;6.50;5.90;;;16.90;99.90;;;;;;2088720;28;20915;-73
2021/06/13 00:04:33;;;;;;;6.73;6.13;;;16.90;99.90;;;;;;2096945;28;20175;-74
2021/06/13 00:05:34;;;;;;;6.23;5.70;;;16.90;99.90;;;;;;2088538;28;20180;-74
2021/06/13 00:06:35;;;;;;;7.17;6.57;;;16.90;99.90;;;;;;2080255;28;20177;-74
2021/06/13 00:07:37;;;;;;;6.57;5.97;;;16.80;99.90;;;;;;2088821;28;20492;-74
2021/06/13 00:08:38;;;;;;;7.60;6.20;;;16.80;99.90;;;;;;2088516;28;20212;-74
2021/06/13 00:09:39;;;;;;;6.70;6.10;;;16.90;99.90;;;;;;2088912;28;20509;-73
2021/06/13 00:10:39;;;;;;;6.60;6.00;;;16.80;99.90;;;;;;2088573;28;20267;-74
2021/06/13 00:11:40;;;;;;;5.90;5.27;;;16.80;99.90;;;;;;2088510;28;20172;-74
2021/06/13 00:12:41;;;;;;;7.00;6.30;;;16.70;99.90;;;;;;2097074;28;20809;-74
2021/06/13 00:13:42;;;;;;;6.83;6.23;;;16.80;99.90;;;;;;2088647;28;20168;-74
2021/06/13 00:14:43;;;;;;;6.20;5.70;;;16.70;99.90;;;;;;2088698;28;20176;-74
2021/06/13 00:15:44;;;;;;;6.70;6.10;;;16.70;99.90;;;;;;2088594;28;20867;-74
2021/06/13 00:16:45;;;;;;;6.67;6.03;;;16.70;99.90;;;;;;2088529;28;20181;-74
2021/06/13 00:17:46;;;;;;;6.03;5.53;;;16.70;99.90;;;;;;2097402;28;20321;-74
2021/06/13 00:18:47;;;;;;;7.03;6.30;;;16.70;99.90;;;;;;2088641;28;20445;-74
2021/06/13 00:19:48;;;;;;;7.07;6.37;;;16.60;99.90;;;;;;2088616;28;20789;-74
2021/06/13 00:20:51;;;;;;;6.87;6.27;;;16.60;99.90;;;;;;2088449;28;20252;-74
2021/06/13 00:21:52;;;;;;;7.13;6.37;;;16.60;99.90;;;;;;2088609;28;20539;-74
2021/06/13 00:22:52;;;;;;;6.87;6.17;;;16.60;99.90;;;;;;2096860;28;20437;-74
2021/06/13 00:23:53;;;;;;;6.90;6.20;;;16.60;99.90;;;;;;2088214;28;20191;-74
2021/06/13 00:24:54;;;;;;;6.47;5.90;;;16.50;99.90;;;;;;2088392;28;20176;-75
2021/06/13 00:25:54;;;;;;;7.33;6.50;;;16.50;99.90;;;;;;2088154;28;20684;-74
2021/06/13 00:26:55;;;;;;;6.80;6.20;;;16.50;99.90;;;;;;2088520;28;20196;-74
2021/06/13 00:27:56;;;;;;;7.13;6.53;;;16.50;99.90;;;;;;2096515;28;20175;-74
2021/06/13 00:28:56;;;;;;;8.20;6.27;;;16.40;99.90;;;;;;2088378;28;20183;-74
2021/06/13 00:29:57;;;;;;;6.77;6.07;;;16.40;99.90;;;;;;2088327;28;20573;-73
2021/06/13 00:30:58;;;;;;;7.13;6.43;;;16.30;99.90;;;;;;2080096;28;20189;-74
2021/06/13 00:31:59;;;;;;;7.75;6.55;;;16.30;99.90;;;;;;2072006;28;20692;-74
2021/06/13 00:33:00;;;;;;;6.97;6.27;;;16.30;99.90;;;;;;2088162;28;20245;-73
2021/06/13 00:34:01;;;;;;;6.70;6.07;;;16.20;99.90;;;;;;2096525;28;20180;-73
2021/06/13 00:35:02;;;;;;;6.97;6.37;;;16.20;99.90;;;;;;2088384;28;20271;-74
2021/06/13 00:36:04;;;;;;;7.45;6.28;;;16.20;99.90;;;;;;2088255;28;20196;-73
2021/06/13 00:37:05;;;;;;;8.00;7.10;;;16.10;99.90;;;;;;2088391;28;20667;-74
2021/06/13 00:38:06;;;;;;;7.50;6.80;;;16.00;99.90;;;;;;2088117;28;20554;-74
2021/06/13 00:39:07;;;;;;;6.70;6.10;;;16.00;99.90;;;;;;2096590;28;20232;-74
2021/06/13 00:40:09;;;;;;;6.90;6.30;;;16.00;99.90;;;;;;2088227;28;20168;-74
2021/06/13 00:41:10;;;;;;;6.85;6.25;;;16.00;99.90;;;;;;2088435;28;20275;-74
2021/06/13 00:42:11;;;;;;;6.97;6.28;;;15.90;99.90;;;;;;2088135;28;20578;-74
2021/06/13 00:43:12;;;;;;;7.37;5.90;;;15.90;99.90;;;;;;2088253;28;20176;-73
2021/06/13 00:44:13;;;;;;;7.40;6.70;;;16.00;99.90;;;;;;2097006;28;20182;-74
2021/06/13 00:45:14;;;;;;;7.43;6.60;;;16.00;99.90;;;;;;2088278;28;20180;-74
2021/06/13 00:46:15;;;;;;;6.88;6.28;;;15.90;99.90;;;;;;2088148;28;20192;-74
2021/06/13 00:47:15;;;;;;;7.47;6.20;;;16.00;99.90;;;;;;2097181;28;20187;-74
2021/06/13 00:48:16;;;;;;;6.70;5.97;;;16.00;99.90;;;;;;2088087;28;20737;-73
2021/06/13 00:49:17;;;;;;;7.00;6.30;;;16.00;99.90;;;;;;2088232;28;20176;-74
2021/06/13 00:50:39;;;;;;;6.87;6.17;;;16.00;99.90;;;;;;2096411;28;20240;-73
2021/06/13 00:51:40;;;;;;;6.63;6.03;;;16.00;99.90;;;;;;2097178;28;20197;-74
2021/06/13 00:52:40;;;;;;;7.17;6.47;;;15.90;99.90;;;;;;2096798;28;20160;-74
2021/06/13 00:53:41;;;;;;;6.93;6.27;;;15.90;99.90;;;;;;2088262;28;20543;-73
2021/06/13 00:54:43;;;;;;;6.60;6.00;;;15.80;99.90;;;;;;2088107;28;20564;-74
2021/06/13 00:55:44;;;;;;;7.75;7.00;;;15.90;99.90;;;;;;2088065;28;20188;-73
2021/06/13 00:56:45;;;;;;;7.10;6.50;;;15.80;99.90;;;;;;2088085;28;20180;-74
2021/06/13 00:57:46;;;;;;;7.80;7.00;;;15.80;99.90;;;;;;2088298;28;20753;-73
2021/06/13 00:58:48;;;;;;;7.60;6.90;;;15.70;99.90;;;;;;2097042;28;20175;-73
2021/06/13 00:59:49;;;;;;;7.82;7.13;;;15.70;99.90;;;;;;2088100;28;20184;-74
2021/06/13 01:00:50;;;;;;;7.77;6.97;;;15.60;99.90;;;;;;2088123;28;20743;-73
2021/06/13 01:01:51;;;;;;;8.30;7.60;;;15.60;99.90;;;;;;2096535;28;20186;-74
2021/06/13 01:02:52;;;;;;;8.40;7.07;;;15.50;99.90;;;;;;2096747;28;20179;-74
2021/06/13 01:03:52;;;;;;;7.93;7.23;;;15.40;99.90;;;;;;2096431;28;20194;-74
2021/06/13 01:04:53;;;;;;;7.97;7.17;;;15.40;99.90;;;;;;2087977;28;20274;-74
2021/06/13 01:05:54;;;;;;;6.83;6.13;;;15.30;99.90;;;;;;2088187;28;20280;-74
2021/06/13 01:07:17;;;;;;;8.30;7.00;;;15.30;99.90;;;;;;2096959;28;20170;-74
2021/06/13 01:08:46;;;;;;;8.00;7.10;;;15.30;99.90;;;;;;2096996;28;20199;-74
2021/06/13 01:09:56;;;;;;;7.43;6.50;;;15.20;99.90;;;;;;2096968;28;20179;-74
2021/06/13 01:11:15;;;;;;;9.73;8.40;;;15.10;99.90;;;;;;2087753;28;20174;-74
2021/06/13 01:12:26;;;;;;;7.88;7.10;;;15.10;99.90;;;;;;2090438;28;20195;-75
2021/06/13 01:13:52;;;;;;;7.45;6.85;;;15.10;99.90;;;;;;2096281;28;20744;-74
2021/06/13 01:15:12;;;;;;;8.18;7.38;;;15.00;99.90;;;;;;2088199;28;20176;-74
2021/06/13 01:16:27;;;;;;;9.38;7.82;;;15.00;99.90;;;;;;2074138;28;20200;-73
2021/06/13 01:17:45;;;;;;;7.95;7.05;;;14.90;99.90;;;;;;2075430;28;20190;-74
2021/06/13 01:19:02;;;;;;;8.13;7.32;;;14.90;99.90;;;;;;2090485;28;20634;-74
2021/06/13 01:20:20;;;;;;;8.93;7.97;;;14.90;99.90;;;;;;2096560;28;20178;-74
2021/06/13 01:21:34;;;;;;;8.68;7.78;;;14.80;99.90;;;;;;2096288;28;20646;-74
2021/06/13 01:23:02;;;;;;;8.75;7.88;;;14.70;99.90;;;;;;2087856;28;20275;-74
2021/06/13 01:24:24;;;;;;;9.43;7.93;;;14.70;99.90;;;;;;2092065;28;20172;-74
2021/06/13 01:26:04;;;;;;;9.50;7.07;;;14.70;99.90;;;;;;2088073;28;20255;-74
2021/06/13 01:27:08;;;;;;;10.02;7.80;;;14.60;99.90;;;;;;2085136;28;20183;-74
2021/06/13 01:28:45;;;;;;;8.52;7.68;;;14.60;99.90;;;;;;2088254;28;20261;-74
2021/06/13 01:29:48;;;;;;;8.30;7.45;;;14.60;99.90;;;;;;2096909;28;20207;-74
2021/06/13 01:30:51;;;;;;;10.10;8.52;;;14.50;99.90;;;;;;2088147;28;20249;-74
2021/06/13 01:31:56;;;;;;;9.23;8.32;;;14.40;99.90;;;;;;2088269;28;20716;-74
2021/06/13 01:33:04;;;;;;;9.63;8.63;;;14.40;99.90;;;;;;2087938;28;20256;-73
2021/06/13 01:34:11;;;;;;;9.43;8.38;;;14.40;99.90;;;;;;2080812;28;20165;-74
2021/06/13 01:35:17;;;;;;;11.10;9.43;;;14.40;99.90;;;;;;2089127;28;20176;-73
2021/06/13 01:36:18;;;;;;;9.90;8.30;;;14.40;99.90;;;;;;2087943;28;20193;-74
2021/06/13 01:37:25;;;;;;;9.38;8.48;;;14.40;99.90;;;;;;2088274;28;20176;-74
2021/06/13 01:38:26;;;;;;;10.73;9.73;;;14.30;99.90;;;;;;2088052;28;20716;-74
2021/06/13 01:39:29;;;;;;;9.95;8.93;;;14.30;99.90;;;;;;2088098;28;20671;-74
2021/06/13 01:40:35;;;;;;;10.23;9.30;;;14.30;99.90;;;;;;2087945;28;20238;-74
2021/06/13 01:41:37;;;;;;;10.65;8.73;;;14.30;99.90;;;;;;2088729;28;20169;-73
2021/06/13 01:42:44;;;;;;;9.65;8.38;;;14.30;99.90;;;;;;2087549;28;20188;-74
2021/06/13 01:43:45;;;;;;;8.73;7.93;;;14.30;99.90;;;;;;2088140;28;20618;-74
2021/06/13 01:44:49;;;;;;;10.10;8.40;;;14.20;99.90;;;;;;2079636;28;20196;-74
2021/06/13 01:45:53;;;;;;;9.35;8.38;;;14.20;99.90;;;;;;2072324;28;20182;-74
2021/06/13 01:46:55;;;;;;;8.52;7.72;;;14.20;99.90;;;;;;2080122;28;20673;-73
2021/06/13 01:47:56;;;;;;;9.45;8.55;;;14.10;99.90;;;;;;2088036;28;20903;-73
2021/06/13 01:48:58;;;;;;;9.33;8.23;;;14.10;99.90;;;;;;2087925;28;20176;-74
2021/06/13 01:49:59;;;;;;;9.10;8.20;;;14.20;99.90;;;;;;2079883;28;20177;-74
2021/06/13 01:51:01;;;;;;;9.63;8.63;;;14.10;99.90;;;;;;2087946;28;20168;-73
2021/06/13 01:52:02;;;;;;;10.75;9.23;;;14.10;99.90;;;;;;2087969;28;20640;-74
2021/06/13 01:53:08;;;;;;;8.73;7.93;;;14.00;99.90;;;;;;2080523;28;20200;-73
2021/06/13 01:54:10;;;;;;;8.68;7.88;;;14.00;99.90;;;;;;2088828;28;20639;-73
2021/06/13 01:55:12;;;;;;;9.35;8.45;;;13.90;99.90;;;;;;2087927;28;20161;-73
2021/06/13 01:56:15;;;;;;;8.60;7.80;;;13.90;99.90;;;;;;2088158;28;20200;-73
2021/06/13 01:57:17;;;;;;;9.02;7.93;;;13.90;99.90;;;;;;2087976;28;20171;-73
2021/06/13 01:58:20;;;;;;;9.68;8.75;;;13.90;99.90;;;;;;2088109;28;20172;-73
2021/06/13 01:59:22;;;;;;;10.00;8.68;;;13.90;99.90;;;;;;2087888;28;20172;-72
2021/06/13 02:00:23;;;;;;;9.27;8.38;;;13.80;99.90;;;;;;2079872;28;20189;-73
2021/06/13 02:01:27;;;;;;;8.80;7.90;;;13.80;99.90;;;;;;2071460;28;20178;-72
2021/06/13 02:02:28;;;;;;;9.07;8.27;;;13.80;99.90;;;;;;2072167;28;20656;-73
2021/06/13 02:03:28;;;;;;;9.27;8.37;;;13.80;99.90;;;;;;2079701;28;20220;-73
2021/06/13 02:04:31;;;;;;;10.50;9.40;;;13.80;99.90;;;;;;2087947;28;20452;-73
2021/06/13 02:05:34;;;;;;;10.57;9.52;;;13.80;99.90;;;;;;2087850;28;20223;-72
2021/06/13 02:06:41;;;;;;;11.43;10.15;;;13.80;99.90;;;;;;2079992;28;20695;-73
2021/06/13 02:07:43;;;;;;;9.82;8.82;;;13.80;99.90;;;;;;2080459;28;20683;-72
2021/06/13 02:08:46;;;;;;;11.23;10.10;;;13.80;99.90;;;;;;2079746;28;20211;-72
2021/06/13 02:09:48;;;;;;;10.93;9.82;;;13.80;99.90;;;;;;2079819;28;20607;-73
2021/06/13 02:10:52;;;;;;;10.20;9.13;;;13.90;99.90;;;;;;2079822;28;20231;-72
2021/06/13 02:11:57;;;;;;;11.38;8.27;;;13.90;99.90;;;;;;2080088;28;20177;-73
2021/06/13 02:13:00;;;;;;;10.00;8.50;;;13.90;99.90;;;;;;2079991;28;20177;-72
2021/06/13 02:14:02;;;;;;;9.70;8.35;;;14.00;99.90;;;;;;2079827;28;20300;-72
2021/06/13 02:15:04;;;;;;;10.32;8.70;;;14.00;99.90;;;;;;2079843;28;20245;-73
2021/06/13 02:16:08;;;;;;;11.40;8.98;;;14.00;99.90;;;;;;2079717;28;20193;-73
2021/06/13 02:17:10;;;;;;;10.40;8.90;;;14.00;99.90;;;;;;2080077;28;20181;-72
2021/06/13 02:18:12;;;;;;;11.98;9.75;;;14.00;99.90;;;;;;2079890;28;20181;-72
2021/06/13 02:19:19;;;;;;;11.15;8.70;;;14.00;99.90;;;;;;2080098;28;20184;-72
2021/06/13 02:20:25;;;;;;;9.95;9.05;;;14.00;99.90;;;;;;2088732;28;20176;-73
2021/06/13 02:21:28;;;;;;;9.80;8.80;;;14.10;99.90;;;;;;2088031;28;20179;-72
2021/06/13 02:22:29;;;;;;;9.45;8.55;;;14.10;99.90;;;;;;2087693;28;20177;-73
2021/06/13 02:23:31;;;;;;;11.75;8.68;;;14.10;99.90;;;;;;2088610;28;20173;-72
2021/06/13 02:24:36;;;;;;;10.43;8.88;;;14.10;99.90;;;;;;2097585;28;20191;-73
2021/06/13 02:25:37;;;;;;;8.73;7.90;;;14.10;99.90;;;;;;2081114;28;20246;-73
2021/06/13 02:26:40;;;;;;;9.17;8.27;;;14.20;99.90;;;;;;2081061;28;20255;-73
2021/06/13 02:27:42;;;;;;;9.43;8.50;;;14.20;99.90;;;;;;2089502;28;20173;-72
2021/06/13 02:28:50;;;;;;;8.80;7.97;;;14.30;99.90;;;;;;2081239;28;20259;-73
2021/06/13 02:29:51;;;;;;;9.13;8.10;;;14.20;99.90;;;;;;2082278;28;20252;-72
2021/06/13 02:30:52;;;;;;;8.13;7.33;;;14.30;99.90;;;;;;2080905;28;20187;-72
2021/06/13 02:31:55;;;;;;;10.30;7.78;;;14.30;99.90;;;;;;2081319;28;20169;-73
2021/06/13 02:32:58;;;;;;;7.97;7.22;;;14.30;99.90;;;;;;2089317;28;20173;-73
2021/06/13 02:34:02;;;;;;;8.85;8.05;;;14.30;99.90;;;;;;2089384;28;20188;-72
2021/06/13 02:35:04;;;;;;;7.97;7.22;;;14.30;99.90;;;;;;2081490;28;20518;-73
2021/06/13 02:36:06;;;;;;;8.63;7.82;;;14.30;99.90;;;;;;2081166;28;20192;-72
2021/06/13 02:37:08;;;;;;;9.02;8.15;;;14.30;99.90;;;;;;2089252;28;20553;-73
2021/06/13 02:38:09;;;;;;;8.63;7.72;;;14.30;99.90;;;;;;2089401;28;20177;-72
2021/06/13 02:39:10;;;;;;;9.07;8.07;;;14.30;99.90;;;;;;2084839;28;20310;-73
2021/06/13 02:40:14;;;;;;;9.85;8.10;;;14.20;99.90;;;;;;2083864;28;20191;-72
2021/06/13 02:41:15;;;;;;;9.18;8.27;;;14.20;99.90;;;;;;2081154;28;20177;-72
2021/06/13 02:42:15;;;;;;;9.03;8.10;;;14.20;99.90;;;;;;2080910;28;20181;-72
2021/06/13 02:43:17;;;;;;;10.13;8.77;;;14.10;99.90;;;;;;2080827;28;20181;-73
2021/06/13 02:44:19;;;;;;;9.65;8.48;;;14.10;99.90;;;;;;2081096;28;20177;-72
2021/06/13 02:45:23;;;;;;;10.18;9.18;;;14.10;99.90;;;;;;2080976;28;20169;-72
2021/06/13 02:46:24;;;;;;;11.70;9.07;;;14.10;99.90;;;;;;2073221;28;20669;-73
2021/06/13 02:47:25;;;;;;;9.67;8.47;;;14.10;99.90;;;;;;2072999;28;20268;-73
2021/06/13 02:48:25;;;;;;;9.33;8.53;;;14.10;99.90;;;;;;2064669;28;20300;-73
2021/06/13 02:49:26;;;;;;;11.40;8.53;;;14.00;99.90;;;;;;2072775;28;20178;-73
2021/06/13 02:50:28;;;;;;;10.87;9.77;;;14.00;99.90;;;;;;2081059;28;20186;-73
2021/06/13 02:51:35;;;;;;;10.05;9.05;;;14.00;99.90;;;;;;2072760;28;20176;-72
2021/06/13 02:53:08;;;;;;;12.05;10.43;;;14.00;99.90;;;;;;2073362;28;20178;-73
2021/06/13 02:54:11;;;;;;;10.02;9.02;;;14.00;99.90;;;;;;2077009;28;20695;-73
2021/06/13 02:55:19;;;;;;;10.23;9.23;;;14.00;99.90;;;;;;2073021;28;20181;-73
2021/06/13 02:56:56;;;;;;;9.98;8.95;;;14.00;99.90;;;;;;2073525;28;20197;-73
2021/06/13 02:58:04;;;;;;;10.65;9.35;;;14.10;99.90;;;;;;2077482;28;20165;-73
2021/06/13 02:59:26;;;;;;;11.10;9.20;;;14.20;99.90;;;;;;2073906;28;20648;-73
2021/06/13 03:00:28;;;;;;;9.32;8.43;;;14.20;99.90;;;;;;2075630;28;20595;-72
2021/06/13 03:01:29;;;;;;;9.80;8.90;;;14.30;99.90;;;;;;2072981;28;20182;-73
2021/06/13 03:02:31;;;;;;;9.18;8.30;;;14.30;99.90;;;;;;2072675;28;20256;-73
2021/06/13 03:03:33;;;;;;;9.50;8.50;;;14.30;99.90;;;;;;2072789;28;20261;-73
2021/06/13 03:04:35;;;;;;;9.98;8.95;;;14.40;99.90;;;;;;2072804;28;20170;-72
2021/06/13 03:05:37;;;;;;;9.32;8.43;;;14.50;99.90;;;;;;2064601;28;20269;-73
2021/06/13 03:06:38;;;;;;;9.65;8.60;;;14.50;99.90;;;;;;2064590;28;20166;-73
2021/06/13 03:07:41;;;;;;;12.63;9.53;;;14.60;99.90;;;;;;2080964;28;20166;-73
2021/06/13 03:08:43;;;;;;;10.82;8.98;;;14.60;99.90;;;;;;2072397;28;20468;-73
2021/06/13 03:09:44;;;;;;;10.60;9.00;;;14.60;99.90;;;;;;2064887;28;20178;-72
2021/06/13 03:10:48;;;;;;;10.48;9.38;;;14.70;99.90;;;;;;2064529;28;20186;-72
2021/06/13 03:11:49;;;;;;;10.43;9.05;;;14.60;99.90;;;;;;2065397;28;20213;-73
2021/06/13 03:12:54;;;;;;;9.90;8.90;;;14.70;99.90;;;;;;2080625;28;20248;-72
2021/06/13 03:13:56;;;;;;;11.07;8.88;;;14.70;99.90;;;;;;2089168;28;20189;-73
2021/06/13 03:14:59;;;;;;;9.57;8.38;;;14.80;99.90;;;;;;2072596;28;20185;-73
2021/06/13 03:16:01;;;;;;;11.38;8.45;;;14.80;99.90;;;;;;2065031;28;20202;-73
2021/06/13 03:17:02;;;;;;;9.40;8.50;;;14.80;99.90;;;;;;2072671;28;20169;-73
2021/06/13 03:18:04;;;;;;;9.25;8.35;;;14.80;99.90;;;;;;2072717;28;20170;-73
2021/06/13 03:19:07;;;;;;;9.98;8.63;;;14.80;99.90;;;;;;2072611;28;20194;-73
2021/06/13 03:20:12;;;;;;;10.52;9.32;;;14.70;99.90;;;;;;2064965;28;20572;-73
2021/06/13 03:21:14;;;;;;;10.10;8.75;;;14.70;99.90;;;;;;2073707;28;20616;-72
2021/06/13 03:22:15;;;;;;;12.40;9.30;;;14.70;99.90;;;;;;2080700;28;20174;-72
2021/06/13 03:23:17;;;;;;;10.45;9.23;;;14.70;99.90;;;;;;2072385;28;20237;-72
2021/06/13 03:24:22;;;;;;;10.25;9.10;;;14.60;99.90;;;;;;2080769;28;20181;-72
2021/06/13 03:25:24;;;;;;;13.38;9.07;;;14.60;99.90;;;;;;2080641;28;20646;-72
2021/06/13 03:26:27;;;;;;;9.57;8.63;;;14.60;99.90;;;;;;2072661;28;20208;-73
2021/06/13 03:27:29;;;;;;;10.88;9.30;;;14.60;99.90;;;;;;2072826;28;20185;-72
2021/06/13 03:28:32;;;;;;;11.82;9.00;;;14.60;99.90;;;;;;2072529;28;20311;-72
2021/06/13 03:29:40;;;;;;;10.13;9.05;;;14.70;99.90;;;;;;2072640;28;20181;-72
2021/06/13 03:30:41;;;;;;;10.75;8.95;;;14.70;99.90;;;;;;2073504;28;20173;-73
2021/06/13 03:31:42;;;;;;;10.30;9.20;;;14.80;99.90;;;;;;2072388;28;20176;-72
2021/06/13 03:32:43;;;;;;;9.73;8.55;;;14.80;99.90;;;;;;2064267;28;20668;-73
2021/06/13 03:33:47;;;;;;;11.23;9.13;;;14.80;99.90;;;;;;2064325;28;20256;-72
2021/06/13 03:34:48;;;;;;;10.23;9.23;;;14.80;99.90;;;;;;2080291;28;20169;-73
2021/06/13 03:35:51;;;;;;;11.77;9.30;;;14.90;99.90;;;;;;2080388;28;20201;-73
2021/06/13 03:36:52;;;;;;;9.80;8.80;;;14.80;99.90;;;;;;2080567;28;20177;-73
2021/06/13 03:37:54;;;;;;;9.82;8.82;;;14.80;99.90;;;;;;2072408;28;20248;-73
2021/06/13 03:38:56;;;;;;;10.32;9.07;;;14.80;99.90;;;;;;2080777;28;20185;-73
2021/06/13 03:39:58;;;;;;;10.40;8.43;;;14.80;99.90;;;;;;2080459;28;20165;-73
2021/06/13 03:40:59;;;;;;;10.95;8.73;;;14.70;99.90;;;;;;2072577;28;20260;-72
2021/06/13 03:42:00;;;;;;;10.30;9.20;;;14.60;99.90;;;;;;2072341;28;20169;-72
2021/06/13 03:43:02;;;;;;;12.10;8.87;;;14.60;99.90;;;;;;2072183;28;20656;-72
2021/06/13 03:44:04;;;;;;;10.77;9.55;;;14.50;99.90;;;;;;2080590;28;20412;-72
2021/06/13 03:45:05;;;;;;;10.32;9.32;;;14.50;99.90;;;;;;2089510;28;20243;-73
2021/06/13 03:46:07;;;;;;;11.45;8.57;;;14.50;99.90;;;;;;2089174;28;20200;-72
2021/06/13 03:47:11;;;;;;;11.50;9.30;;;14.40;99.90;;;;;;2080597;28;20260;-73
2021/06/13 03:48:14;;;;;;;10.45;8.77;;;14.30;99.90;;;;;;2072682;28;20257;-73
2021/06/13 03:49:17;;;;;;;11.98;9.70;;;14.30;99.90;;;;;;2072940;28;20185;-73
2021/06/13 03:50:19;;;;;;;10.32;8.98;;;14.30;99.90;;;;;;2064380;28;20179;-73
2021/06/13 03:51:21;;;;;;;11.15;9.75;;;14.30;99.90;;;;;;2064764;28;20676;-73
2021/06/13 03:52:22;;;;;;;12.75;9.57;;;14.20;99.90;;;;;;2080202;28;20252;-73
2021/06/13 03:53:23;;;;;;;14.20;10.07;;;14.10;99.90;;;;;;2080558;28;20648;-72
2021/06/13 03:54:24;;;;;;;12.60;9.33;;;14.10;99.90;;;;;;2080451;28;20240;-72
2021/06/13 03:55:25;;;;;;;10.83;9.73;;;14.00;99.90;;;;;;2072373;28;20433;-73
2021/06/13 03:56:39;;;;;;;11.20;9.73;;;14.00;99.90;;;;;;2072199;28;20218;-75
2021/06/13 03:57:48;;;;;;;13.75;10.15;;;14.00;99.90;;;;;;2074500;28;20165;-74
2021/06/13 03:58:50;;;;;;;11.00;9.90;;;13.90;99.90;;;;;;2073316;28;20524;-74
2021/06/13 03:59:52;;;;;;;13.43;9.90;;;13.80;99.90;;;;;;2072536;28;20182;-74
2021/06/13 04:00:54;;;;;;;12.30;9.93;;;13.80;99.90;;;;;;2076347;28;20188;-74
2021/06/13 04:01:57;;;;;;;13.05;9.80;;;13.80;99.90;;;;;;2097133;28;20582;-74
2021/06/13 04:02:58;;;;;;;12.52;9.65;;;13.70;99.90;;;;;;2105033;28;20182;-74
2021/06/13 04:04:00;;;;;;;10.40;9.30;;;13.60;99.90;;;;;;2096925;28;20190;-73
2021/06/13 04:05:01;;;;;;;10.77;9.40;;;13.60;99.90;;;;;;2088731;28;20180;-74
2021/06/13 04:06:03;;;;;;;12.98;10.23;;;13.60;99.90;;;;;;2080359;28;20256;-74
2021/06/13 04:07:08;;;;;;;11.68;9.32;;;13.50;99.90;;;;;;2080705;28;20231;-74
2021/06/13 04:08:12;;;;;;;12.45;9.95;;;13.50;99.90;;;;;;2089434;28;20172;-74
2021/06/13 04:09:15;;;;;;;10.93;9.48;;;13.60;99.90;;;;;;2089007;28;20609;-74
2021/06/13 04:10:18;;;;;;;13.00;10.27;;;13.50;99.90;;;;;;2088968;28;20575;-73
2021/06/13 04:11:21;;;;;;;13.63;10.63;;;13.50;99.90;;;;;;2088857;28;20264;-74
2021/06/13 04:12:24;;;;;;;11.93;9.57;;;13.50;99.90;;;;;;2088784;28;20183;-74
2021/06/13 04:13:26;;;;;;;12.73;10.38;;;13.50;99.90;;;;;;2088818;28;20164;-74
2021/06/13 04:14:27;;;;;;;12.57;10.95;;;13.50;99.90;;;;;;2097064;28;20241;-74
2021/06/13 04:15:28;;;;;;;11.88;10.15;;;13.50;99.90;;;;;;2105126;28;20171;-73
2021/06/13 04:16:29;;;;;;;13.30;10.70;;;13.50;99.90;;;;;;2105168;28;20187;-73
2021/06/13 04:17:32;;;;;;;13.10;10.50;;;13.50;99.90;;;;;;2096669;28;20164;-74
2021/06/13 04:18:34;;;;;;;12.60;10.80;;;13.50;99.90;;;;;;2088864;28;20215;-74
2021/06/13 04:19:35;;;;;;;11.68;10.48;;;13.50;99.90;;;;;;2096809;28;20552;-74
2021/06/13 04:20:37;;;;;;;11.07;9.97;;;13.50;99.90;;;;;;2096801;28;20175;-73
2021/06/13 04:21:43;;;;;;;12.00;10.15;;;13.60;99.90;;;;;;2088621;28;20188;-73
2021/06/13 04:22:44;;;;;;;13.05;10.02;;;13.60;99.90;;;;;;2088939;28;20173;-73
2021/06/13 04:23:46;;;;;;;13.33;10.60;;;13.60;99.90;;;;;;2088277;28;20573;-74
2021/06/13 04:24:49;;;;;;;13.10;10.27;;;13.60;99.90;;;;;;2096859;28;20171;-73
2021/06/13 04:25:50;;;;;;;10.60;9.23;;;13.70;99.90;;;;;;2096522;28;20176;-74
2021/06/13 04:26:55;;;;;;;13.05;9.77;;;13.70;99.90;;;;;;2096688;28;20258;-74
2021/06/13 04:27:57;;;;;;;13.70;9.30;;;13.70;99.90;;;;;;2096495;28;20259;-74
2021/06/13 04:28:59;;;;;;;11.90;9.07;;;13.70;99.90;;;;;;2097537;28;20179;-74
2021/06/13 04:30:00;;;;;;;10.30;9.20;;;13.70;99.90;;;;;;2096529;28;20175;-73
2021/06/13 04:31:01;;;;;;;11.00;9.00;;;13.80;99.90;;;;;;2088598;28;20759;-73
2021/06/13 04:32:02;;;;;;;12.97;9.70;;;13.70;99.90;;;;;;2096616;28;20183;-74
2021/06/13 04:33:03;;;;;;;13.10;9.90;;;13.70;99.90;;;;;;2104763;28;20232;-71
2021/06/13 04:34:04;;;;;;;13.07;9.57;;;13.70;99.90;;;;;;2104878;28;20224;-73
2021/06/13 04:35:06;;;;;;;12.63;8.95;;;13.70;99.90;;;;;;2105612;28;20512;-74
2021/06/13 04:36:08;;;;;;;12.38;9.27;;;13.70;99.90;;;;;;2105452;28;20541;-74
2021/06/13 04:37:10;;;;;;;11.63;9.60;;;13.70;99.90;;;;;;2105760;28;20243;-73
2021/06/13 04:38:10;;;;;;;13.07;9.40;;;13.70;99.90;;;;;;2105512;28;20171;-74
2021/06/13 04:39:11;;;;;;;12.93;10.40;;;13.60;99.90;;;;;;2100811;28;20173;-73
2021/06/13 04:40:12;;;;;;;11.27;9.30;;;13.60;99.90;;;;;;2088699;28;20271;-74
2021/06/13 04:41:13;;;;;;;10.43;9.07;;;13.70;99.90;;;;;;2088908;28;20179;-74
2021/06/13 04:42:14;;;;;;;10.93;9.73;;;13.70;99.90;;;;;;2079863;28;20184;-74
2021/06/13 04:43:15;;;;;;;11.45;9.57;;;13.70;99.90;;;;;;2080084;28;20177;-74
2021/06/13 04:44:15;;;;;;;12.90;9.30;;;13.70;99.90;;;;;;2088772;28;20173;-74
2021/06/13 04:45:16;;;;;;;12.37;9.10;;;13.70;99.90;;;;;;2080042;28;20169;-74
2021/06/13 04:46:22;;;;;;;11.07;9.60;;;13.70;99.90;;;;;;2079407;28;20733;-74
2021/06/13 04:47:23;;;;;;;10.68;8.95;;;13.70;99.90;;;;;;2079805;28;20193;-74
2021/06/13 04:48:23;;;;;;;10.57;9.17;;;13.70;99.90;;;;;;2080457;28;20212;-73
2021/06/13 04:49:24;;;;;;;11.30;8.83;;;13.70;99.90;;;;;;2088333;28;20172;-74
2021/06/13 04:50:25;;;;;;;10.13;8.77;;;13.70;99.90;;;;;;2079877;28;20328;-74
2021/06/13 04:51:27;;;;;;;10.60;9.13;;;13.70;99.90;;;;;;2080155;28;20204;-73
2021/06/13 04:52:30;;;;;;;10.63;8.88;;;13.70;99.90;;;;;;2079829;28;20173;-74
2021/06/13 04:53:49;;;;;;;13.05;9.00;;;13.70;99.90;;;;;;2072262;28;20173;-73
2021/06/13 04:55:02;;;;;;;11.75;8.32;;;13.70;99.90;;;;;;2082521;28;20165;-74
2021/06/13 04:56:11;;;;;;;12.98;9.43;;;13.80;99.90;;;;;;2080009;28;20264;-74
2021/06/13 04:57:55;;;;;;;14.25;9.43;;;13.80;99.90;;;;;;2080851;28;20172;-73
2021/06/13 04:58:56;;;;;;;10.00;8.23;;;13.80;99.90;;;;;;2077325;28;20184;-74
2021/06/13 04:59:57;;;;;;;10.87;9.17;;;13.80;99.90;;;;;;2079188;28;20201;-73
2021/06/13 05:00:57;;;;;;;9.87;8.20;;;13.80;99.90;;;;;;2079934;28;20181;-74
2021/06/13 05:02:00;;;;;;;13.37;8.60;;;13.80;99.90;;;;;;2080058;28;20169;-74
2021/06/13 05:03:00;;;;;;;12.48;8.93;;;13.90;99.90;;;;;;2080010;28;20264;-73
2021/06/13 05:04:02;;;;;;;12.30;8.83;;;14.00;99.90;;;;;;2088837;28;20628;-73
2021/06/13 05:05:03;;;;;;;11.45;8.63;;;14.10;99.90;;;;;;2088662;28;20180;-73
2021/06/13 05:06:04;;;;;;;9.07;8.18;;;14.10;99.90;;;;;;2079745;28;20720;-74
2021/06/13 05:07:06;;;;;;;10.63;8.37;;;14.30;99.90;;;;;;2079882;28;20208;-74
2021/06/13 05:08:06;;;;;;;8.93;7.90;;;14.40;99.90;;;;;;2088053;28;20651;-74
2021/06/13 05:09:07;;;;;;;9.90;7.93;;;14.40;99.90;;;;;;2079729;28;20178;-73
2021/06/13 05:10:09;;;;;;;9.20;7.83;;;14.60;99.90;;;;;;2080043;28;20650;-74
2021/06/13 05:11:11;;;;;;;12.73;8.32;;;14.60;99.90;;;;;;2088649;28;20179;-73
2021/06/13 05:12:12;;;;;;;9.20;8.20;;;14.60;99.90;;;;;;2088690;28;20176;-74
2021/06/13 05:13:17;;;;;;;9.95;7.93;;;14.60;99.90;;;;;;2079754;28;20170;-74
2021/06/13 05:14:18;;;;;;;8.48;7.20;;;14.70;99.90;;;;;;2080639;28;20172;-74
2021/06/13 05:15:21;;;;;;;8.80;7.83;;;14.70;99.90;;;;;;2088703;28;20199;-74
2021/06/13 05:16:21;;;;;;;9.75;7.38;;;14.80;99.90;;;;;;2088649;28;20180;-73
2021/06/13 05:17:22;;;;;;;13.30;8.37;;;14.80;99.90;;;;;;2079863;28;20243;-73
2021/06/13 05:18:23;;;;;;;10.07;7.50;;;14.80;99.90;;;;;;2079942;28;20648;-74
2021/06/13 05:19:24;;;;;;;11.80;8.40;;;14.90;99.90;;;;;;2088079;28;20251;-74
2021/06/13 05:20:24;;;;;;;9.00;7.73;;;15.00;99.90;;;;;;2088796;28;20664;-74
2021/06/13 05:21:25;;;;;;;9.50;7.50;;;15.10;99.90;;;;;;2088833;28;20231;-74
2021/06/13 05:22:26;;;;;;;9.97;7.90;;;15.20;99.90;;;;;;2087725;28;20178;-73
2021/06/13 05:23:27;;;;;;;12.87;7.97;;;15.30;99.90;;;;;;2088159;28;20591;-74
2021/06/13 05:24:28;;;;;;;11.00;7.45;;;15.40;99.90;;;;;;2079714;28;20173;-73
2021/06/13 05:25:33;;;;;;;8.90;7.70;;;15.30;99.90;;;;;;2079952;28;20169;-74
2021/06/13 05:26:34;;;;;;;9.85;7.25;;;15.30;99.90;;;;;;2088120;28;20172;-74
2021/06/13 05:27:34;;;;;;;8.63;7.23;;;15.40;99.90;;;;;;2088132;28;20702;-73
2021/06/13 05:28:35;;;;;;;9.97;6.90;;;15.50;99.90;;;;;;2088638;28;20324;-73